sensor_id;sensor_type;location;lat;lon;timestamp;temperature;humidity
1644;DHT22;46825;51.99869940;8.49421771;2023-02-01T00:00:50;4.30;99.90
1644;DHT22;46825;51.99869940;8.49421771;2023-02-01T00:01:50;4.30;99.90
1644;DHT22;46825;51.99869940;8.49421771;2023-02-01T00:02:51;4.30;99.90
1644;DHT22;46825;51.99869940;8.49421771;2023-02-01T00:03:51;4.30;99.90
1644;DHT22;46825;51.99869940;8.49421771;2023-02-01T00:05:57;4.30;99.90
1644;DHT22;46825;51.99869940;8.49421771;2023-02-01T00:06:58;4.30;99.90
1644;DHT22;46825;51.99869940;8.49421771;2023-02-01T00:07:58;4.30;99.90
1644;DHT22;46825;51.99869940;8.49421771;2023-02-01T00:08:59;4.40;99.90
1644;DHT22;46825;51.99869940;8.49421771;2023-02-01T00:09:59;4.30;99.90
1644;DHT22;46825;51.99869940;8.49421771;2023-02-01T00:11:02;4.30;99.90
1644;DHT22;46825;51.99869940;8.49421771;2023-02-01T00:12:03;4.30;99.90
1644;DHT22;46825;51.99869940;8.49421771;2023-02-01T00:13:04;4.40;99.90
1644;DHT22;46825;51.99869940;8.49421771;2023-02-01T00:14:05;4.30;99.90
1644;DHT22;46825;51.99869940;8.49421771;2023-02-01T00:15:06;4.30;99.90
1644;DHT22;46825;51.99869940;8.49421771;2023-02-01T00:16:09;4.30;99.90
1644;DHT22;46825;51.99869940;8.49421771;2023-02-01T00:17:10;4.40;99.90
1644;DHT22;46825;51.99869940;8.49421771;2023-02-01T00:18:10;4.40;99.90
1644;DHT22;46825;51.99869940;8.49421771;2023-02-01T00:19:13;4.30;99.90
1644;DHT22;46825;51.99869940;8.49421771;2023-02-01T00:20:14;4.30;99.90
1644;DHT22;46825;51.99869940;8.49421771;2023-02-01T00:21:17;4.30;99.90
1644;DHT22;46825;51.99869940;8.49421771;2023-02-01T00:22:18;5.00;99.90
1644;DHT22;46825;51.99869940;8.49421771;2023-02-01T00:23:19;4.40;99.90
1644;DHT22;46825;51.99869940;8.49421771;2023-02-01T00:24:19;4.40;99.90
1644;DHT22;46825;51.99869940;8.49421771;2023-02-01T00:25:21;4.30;99.90
1644;DHT22;46825;51.99869940;8.49421771;2023-02-01T00:27:34;4.30;99.90
1644;DHT22;46825;51.99869940;8.49421771;2023-02-01T00:28:35;4.30;99.90
1644;DHT22;46825;51.99869940;8.49421771;2023-02-01T00:29:35;4.50;99.90
1644;DHT22;46825;51.99869940;8.49421771;2023-02-01T00:30:36;4.30;99.90
1644;DHT22;46825;51.99869940;8.49421771;2023-02-01T00:31:36;4.40;99.90
1644;DHT22;46825;51.99869940;8.49421771;2023-02-01T00:32:37;4.30;99.90
1644;DHT22;46825;51.99869940;8.49421771;2023-02-01T00:33:37;4.40;99.90
1644;DHT22;46825;51.99869940;8.49421771;2023-02-01T00:34:38;4.30;99.90
1644;DHT22;46825;51.99869940;8.49421771;2023-02-01T00:35:39;4.30;99.90
1644;DHT22;46825;51.99869940;8.49421771;2023-02-01T00:36:40;4.40;99.90
1644;DHT22;46825;51.99869940;8.49421771;2023-02-01T00:37:41;4.40;99.90
1644;DHT22;46825;51.99869940;8.49421771;2023-02-01T00:38:41;4.40;99.90
1644;DHT22;46825;51.99869940;8.49421771;2023-02-01T00:39:42;4.40;99.90
1644;DHT22;46825;51.99869940;8.49421771;2023-02-01T00:40:42;4.40;99.90
1644;DHT22;46825;51.99869940;8.49421771;2023-02-01T00:41:43;4.40;99.90
1644;DHT22;46825;51.99869940;8.49421771;2023-02-01T00:42:44;4.40;99.90
1644;DHT22;46825;51.99869940;8.49421771;2023-02-01T00:43:45;4.40;99.90
1644;DHT22;46825;51.99869940;8.49421771;2023-02-01T00:44:45;4.40;99.90
1644;DHT22;46825;51.99869940;8.49421771;2023-02-01T00:45:47;4.40;99.90
1644;DHT22;46825;51.99869940;8.49421771;2023-02-01T00:46:47;4.40;99.90
1644;DHT22;46825;51.99869940;8.49421771;2023-02-01T00:47:48;4.40;99.90
1644;DHT22;46825;51.99869940;8.49421771;2023-02-01T00:48:49;4.30;99.90
1644;DHT22;46825;51.99869940;8.49421771;2023-02-01T00:49:49;4.40;99.90
1644;DHT22;46825;51.99869940;8.49421771;2023-02-01T00:50:50;4.30;99.90
1644;DHT22;46825;51.99869940;8.49421771;2023-02-01T00:51:51;4.40;99.90
1644;DHT22;46825;51.99869940;8.49421771;2023-02-01T00:52:51;4.40;99.90
1644;DHT22;46825;51.99869940;8.49421771;2023-02-01T00:53:52;4.70;99.90
1644;DHT22;46825;51.99869940;8.49421771;2023-02-01T00:54:53;4.40;99.90
1644;DHT22;46825;51.99869940;8.49421771;2023-02-01T00:55:53;4.40;99.90
1644;DHT22;46825;51.99869940;8.49421771;2023-02-01T00:56:54;4.30;99.90
1644;DHT22;46825;51.99869940;8.49421771;2023-02-01T00:57:54;4.40;99.90
1644;DHT22;46825;51.99869940;8.49421771;2023-02-01T00:58:55;4.30;99.90
1644;DHT22;46825;51.99869940;8.49421771;2023-02-01T00:59:56;4.30;99.90
1644;DHT22;46825;51.99869940;8.49421771;2023-02-01T01:01:07;4.30;99.90
1644;DHT22;46825;51.99869940;8.49421771;2023-02-01T01:02:08;4.50;99.90
1644;DHT22;46825;51.99869940;8.49421771;2023-02-01T01:03:11;4.30;99.90
1644;DHT22;46825;51.99869940;8.49421771;2023-02-01T01:04:20;4.30;99.90
1644;DHT22;46825;51.99869940;8.49421771;2023-02-01T01:05:21;4.40;99.90
1644;DHT22;46825;51.99869940;8.49421771;2023-02-01T01:06:25;4.40;99.90
1644;DHT22;46825;51.99869940;8.49421771;2023-02-01T01:08:26;4.40;99.90
1644;DHT22;46825;51.99869940;8.49421771;2023-02-01T01:09:27;4.40;99.90
1644;DHT22;46825;51.99869940;8.49421771;2023-02-01T01:10:28;4.00;99.90
1644;DHT22;46825;51.99869940;8.49421771;2023-02-01T01:11:30;4.40;99.90
1644;DHT22;46825;51.99869940;8.49421771;2023-02-01T01:12:31;4.40;99.90
1644;DHT22;46825;51.99869940;8.49421771;2023-02-01T01:13:32;4.50;99.90
1644;DHT22;46825;51.99869940;8.49421771;2023-02-01T01:14:33;4.50;99.90
1644;DHT22;46825;51.99869940;8.49421771;2023-02-01T01:15:37;4.60;99.90
1644;DHT22;46825;51.99869940;8.49421771;2023-02-01T01:16:38;4.50;99.90
1644;DHT22;46825;51.99869940;8.49421771;2023-02-01T01:17:39;4.60;99.90
1644;DHT22;46825;51.99869940;8.49421771;2023-02-01T01:18:40;4.60;99.90
1644;DHT22;46825;51.99869940;8.49421771;2023-02-01T01:19:40;4.60;99.90
1644;DHT22;46825;51.99869940;8.49421771;2023-02-01T01:20:41;4.60;99.90
1644;DHT22;46825;51.99869940;8.49421771;2023-02-01T01:21:42;4.60;99.90
1644;DHT22;46825;51.99869940;8.49421771;2023-02-01T01:22:42;4.60;99.90
1644;DHT22;46825;51.99869940;8.49421771;2023-02-01T01:23:44;4.60;99.90
1644;DHT22;46825;51.99869940;8.49421771;2023-02-01T01:24:44;4.60;99.90
1644;DHT22;46825;51.99869940;8.49421771;2023-02-01T01:25:45;4.60;99.90
1644;DHT22;46825;51.99869940;8.49421771;2023-02-01T01:26:46;4.60;99.90
1644;DHT22;46825;51.99869940;8.49421771;2023-02-01T01:27:46;4.60;99.90
1644;DHT22;46825;51.99869940;8.49421771;2023-02-01T01:28:47;4.60;99.90
1644;DHT22;46825;51.99869940;8.49421771;2023-02-01T01:29:48;4.60;99.90
1644;DHT22;46825;51.99869940;8.49421771;2023-02-01T01:30:48;4.60;99.90
1644;DHT22;46825;51.99869940;8.49421771;2023-02-01T01:31:49;4.70;99.90
1644;DHT22;46825;51.99869940;8.49421771;2023-02-01T01:32:50;4.70;99.90
1644;DHT22;46825;51.99869940;8.49421771;2023-02-01T01:33:53;4.70;99.90
1644;DHT22;46825;51.99869940;8.49421771;2023-02-01T01:34:54;4.70;99.90
1644;DHT22;46825;51.99869940;8.49421771;2023-02-01T01:35:55;4.70;99.90
1644;DHT22;46825;51.99869940;8.49421771;2023-02-01T01:36:56;4.70;99.90
1644;DHT22;46825;51.99869940;8.49421771;2023-02-01T01:37:56;4.70;99.90
1644;DHT22;46825;51.99869940;8.49421771;2023-02-01T01:38:57;4.60;99.90
1644;DHT22;46825;51.99869940;8.49421771;2023-02-01T01:39:58;4.70;99.90
1644;DHT22;46825;51.99869940;8.49421771;2023-02-01T01:40:58;4.60;99.90
1644;DHT22;46825;51.99869940;8.49421771;2023-02-01T01:41:59;4.60;99.90
1644;DHT22;46825;51.99869940;8.49421771;2023-02-01T01:43:00;4.60;99.90
1644;DHT22;46825;51.99869940;8.49421771;2023-02-01T01:45:45;4.60;99.90
1644;DHT22;46825;51.99869940;8.49421771;2023-02-01T01:46:46;4.70;99.90
1644;DHT22;46825;51.99869940;8.49421771;2023-02-01T01:47:50;4.60;99.90
1644;DHT22;46825;51.99869940;8.49421771;2023-02-01T01:49:15;4.60;99.90
1644;DHT22;46825;51.99869940;8.49421771;2023-02-01T01:50:21;4.60;99.90
1644;DHT22;46825;51.99869940;8.49421771;2023-02-01T01:51:24;4.70;99.90
1644;DHT22;46825;51.99869940;8.49421771;2023-02-01T01:52:26;4.60;99.90
1644;DHT22;46825;51.99869940;8.49421771;2023-02-01T01:53:30;4.70;99.90
1644;DHT22;46825;51.99869940;8.49421771;2023-02-01T01:54:38;4.70;99.90
1644;DHT22;46825;51.99869940;8.49421771;2023-02-01T01:55:42;4.70;99.90
1644;DHT22;46825;51.99869940;8.49421771;2023-02-01T01:56:46;4.70;99.90
1644;DHT22;46825;51.99869940;8.49421771;2023-02-01T01:57:57;4.70;99.90
1644;DHT22;46825;51.99869940;8.49421771;2023-02-01T01:59:00;4.80;99.90
1644;DHT22;46825;51.99869940;8.49421771;2023-02-01T02:00:08;4.80;99.90
1644;DHT22;46825;51.99869940;8.49421771;2023-02-01T02:01:09;4.80;99.90
1644;DHT22;46825;51.99869940;8.49421771;2023-02-01T02:02:10;4.80;99.90
1644;DHT22;46825;51.99869940;8.49421771;2023-02-01T02:03:32;4.90;99.90
1644;DHT22;46825;51.99869940;8.49421771;2023-02-01T02:04:34;4.80;99.90
1644;DHT22;46825;51.99869940;8.49421771;2023-02-01T02:05:35;4.90;99.90
1644;DHT22;46825;51.99869940;8.49421771;2023-02-01T02:07:51;4.80;99.90
1644;DHT22;46825;51.99869940;8.49421771;2023-02-01T02:08:52;4.90;99.90
1644;DHT22;46825;51.99869940;8.49421771;2023-02-01T02:09:53;5.00;99.90
1644;DHT22;46825;51.99869940;8.49421771;2023-02-01T02:10:54;4.90;99.90
1644;DHT22;46825;51.99869940;8.49421771;2023-02-01T02:12:01;5.00;99.90
1644;DHT22;46825;51.99869940;8.49421771;2023-02-01T02:13:01;4.70;99.90
1644;DHT22;46825;51.99869940;8.49421771;2023-02-01T02:14:03;5.00;99.90
1644;DHT22;46825;51.99869940;8.49421771;2023-02-01T02:15:07;5.00;99.90
1644;DHT22;46825;51.99869940;8.49421771;2023-02-01T02:17:36;5.00;99.90
1644;DHT22;46825;51.99869940;8.49421771;2023-02-01T02:22:04;4.90;99.90
1644;DHT22;46825;51.99869940;8.49421771;2023-02-01T02:23:34;4.90;99.90
1644;DHT22;46825;51.99869940;8.49421771;2023-02-01T02:26:34;5.00;99.90
1644;DHT22;46825;51.99869940;8.49421771;2023-02-01T02:29:31;5.00;99.90
1644;DHT22;46825;51.99869940;8.49421771;2023-02-01T02:30:59;5.00;99.90
1644;DHT22;46825;51.99869940;8.49421771;2023-02-01T02:32:20;5.00;99.90
1644;DHT22;46825;51.99869940;8.49421771;2023-02-01T02:38:30;5.00;99.90
1644;DHT22;46825;51.99869940;8.49421771;2023-02-01T02:39:53;5.10;99.90
1644;DHT22;46825;51.99869940;8.49421771;2023-02-01T02:41:17;5.00;99.90
1644;DHT22;46825;51.99869940;8.49421771;2023-02-01T02:42:47;5.00;99.90
1644;DHT22;46825;51.99869940;8.49421771;2023-02-01T02:44:18;5.10;99.90
1644;DHT22;46825;51.99869940;8.49421771;2023-02-01T02:46:07;5.10;99.90
1644;DHT22;46825;51.99869940;8.49421771;2023-02-01T02:47:49;5.10;99.90
1644;DHT22;46825;51.99869940;8.49421771;2023-02-01T02:48:59;5.10;99.90
1644;DHT22;46825;51.99869940;8.49421771;2023-02-01T02:50:29;5.10;99.90
1644;DHT22;46825;51.99869940;8.49421771;2023-02-01T02:52:13;5.10;99.90
1644;DHT22;46825;51.99869940;8.49421771;2023-02-01T02:53:43;5.10;99.90
1644;DHT22;46825;51.99869940;8.49421771;2023-02-01T02:55:06;5.10;99.90
1644;DHT22;46825;51.99869940;8.49421771;2023-02-01T02:56:10;5.10;99.90
1644;DHT22;46825;51.99869940;8.49421771;2023-02-01T02:57:37;5.10;99.90
1644;DHT22;46825;51.99869940;8.49421771;2023-02-01T02:58:58;5.10;99.90
1644;DHT22;46825;51.99869940;8.49421771;2023-02-01T03:00:21;5.10;99.90
1644;DHT22;46825;51.99869940;8.49421771;2023-02-01T03:01:41;5.20;99.90
1644;DHT22;46825;51.99869940;8.49421771;2023-02-01T03:03:02;5.10;99.90
1644;DHT22;46825;51.99869940;8.49421771;2023-02-01T03:04:21;5.20;99.90
1644;DHT22;46825;51.99869940;8.49421771;2023-02-01T03:05:23;5.20;99.90
1644;DHT22;46825;51.99869940;8.49421771;2023-02-01T03:06:25;5.20;99.90
1644;DHT22;46825;51.99869940;8.49421771;2023-02-01T03:08:44;5.10;99.90
1644;DHT22;46825;51.99869940;8.49421771;2023-02-01T03:09:47;5.20;99.90
1644;DHT22;46825;51.99869940;8.49421771;2023-02-01T03:11:08;5.10;99.90
1644;DHT22;46825;51.99869940;8.49421771;2023-02-01T03:12:12;5.20;99.90
1644;DHT22;46825;51.99869940;8.49421771;2023-02-01T03:14:36;5.10;99.90
1644;DHT22;46825;51.99869940;8.49421771;2023-02-01T03:15:54;5.20;99.90
1644;DHT22;46825;51.99869940;8.49421771;2023-02-01T03:17:04;5.20;99.90
1644;DHT22;46825;51.99869940;8.49421771;2023-02-01T03:18:14;5.20;99.90
1644;DHT22;46825;51.99869940;8.49421771;2023-02-01T03:19:22;5.30;99.90
1644;DHT22;46825;51.99869940;8.49421771;2023-02-01T03:20:24;5.30;99.90
1644;DHT22;46825;51.99869940;8.49421771;2023-02-01T03:22:30;5.30;99.90
1644;DHT22;46825;51.99869940;8.49421771;2023-02-01T03:23:34;5.30;99.90
1644;DHT22;46825;51.99869940;8.49421771;2023-02-01T03:24:38;5.30;99.90
1644;DHT22;46825;51.99869940;8.49421771;2023-02-01T03:25:40;5.30;99.90
1644;DHT22;46825;51.99869940;8.49421771;2023-02-01T03:26:45;5.30;99.90
1644;DHT22;46825;51.99869940;8.49421771;2023-02-01T03:27:53;5.40;99.90
1644;DHT22;46825;51.99869940;8.49421771;2023-02-01T03:29:00;5.30;99.90
1644;DHT22;46825;51.99869940;8.49421771;2023-02-01T03:31:24;5.30;99.90
1644;DHT22;46825;51.99869940;8.49421771;2023-02-01T03:32:24;5.50;99.90
1644;DHT22;46825;51.99869940;8.49421771;2023-02-01T03:33:26;5.30;99.90
1644;DHT22;46825;51.99869940;8.49421771;2023-02-01T03:34:27;5.30;99.90
1644;DHT22;46825;51.99869940;8.49421771;2023-02-01T03:35:44;5.30;99.90
1644;DHT22;46825;51.99869940;8.49421771;2023-02-01T03:36:51;5.30;99.90
1644;DHT22;46825;51.99869940;8.49421771;2023-02-01T03:40:36;5.40;99.90
1644;DHT22;46825;51.99869940;8.49421771;2023-02-01T03:41:41;5.40;99.90
1644;DHT22;46825;51.99869940;8.49421771;2023-02-01T03:42:48;5.30;99.90
1644;DHT22;46825;51.99869940;8.49421771;2023-02-01T03:43:56;5.30;99.90
1644;DHT22;46825;51.99869940;8.49421771;2023-02-01T03:46:09;5.30;99.90
1644;DHT22;46825;51.99869940;8.49421771;2023-02-01T03:47:18;5.30;99.90
1644;DHT22;46825;51.99869940;8.49421771;2023-02-01T03:48:21;5.30;99.90
1644;DHT22;46825;51.99869940;8.49421771;2023-02-01T03:49:32;5.30;99.90
1644;DHT22;46825;51.99869940;8.49421771;2023-02-01T03:50:37;5.30;99.90
1644;DHT22;46825;51.99869940;8.49421771;2023-02-01T03:51:40;5.40;99.90
1644;DHT22;46825;51.99869940;8.49421771;2023-02-01T03:53:05;5.30;99.90
1644;DHT22;46825;51.99869940;8.49421771;2023-02-01T03:54:11;5.30;99.90
1644;DHT22;46825;51.99869940;8.49421771;2023-02-01T03:55:15;5.40;99.90
1644;DHT22;46825;51.99869940;8.49421771;2023-02-01T03:56:18;5.30;99.90
1644;DHT22;46825;51.99869940;8.49421771;2023-02-01T03:57:32;5.40;99.90
1644;DHT22;46825;51.99869940;8.49421771;2023-02-01T03:58:34;5.40;99.90
1644;DHT22;46825;51.99869940;8.49421771;2023-02-01T03:59:39;5.40;99.90
1644;DHT22;46825;51.99869940;8.49421771;2023-02-01T04:00:42;5.40;99.90
1644;DHT22;46825;51.99869940;8.49421771;2023-02-01T04:02:45;5.40;99.90
1644;DHT22;46825;51.99869940;8.49421771;2023-02-01T04:03:45;5.40;99.90
1644;DHT22;46825;51.99869940;8.49421771;2023-02-01T04:05:48;5.40;99.90
1644;DHT22;46825;51.99869940;8.49421771;2023-02-01T04:06:50;5.40;99.90
1644;DHT22;46825;51.99869940;8.49421771;2023-02-01T04:07:50;5.40;99.90
1644;DHT22;46825;51.99869940;8.49421771;2023-02-01T04:08:51;5.40;99.90
1644;DHT22;46825;51.99869940;8.49421771;2023-02-01T04:09:52;5.40;99.90
1644;DHT22;46825;51.99869940;8.49421771;2023-02-01T04:10:52;5.40;99.90
1644;DHT22;46825;51.99869940;8.49421771;2023-02-01T04:11:53;5.40;99.90
1644;DHT22;46825;51.99869940;8.49421771;2023-02-01T04:12:54;5.40;99.90
1644;DHT22;46825;51.99869940;8.49421771;2023-02-01T04:13:54;5.40;99.90
1644;DHT22;46825;51.99869940;8.49421771;2023-02-01T04:14:55;5.40;99.90
1644;DHT22;46825;51.99869940;8.49421771;2023-02-01T04:15:55;5.40;99.90
1644;DHT22;46825;51.99869940;8.49421771;2023-02-01T04:16:56;5.40;99.90
1644;DHT22;46825;51.99869940;8.49421771;2023-02-01T04:17:56;5.40;99.90
1644;DHT22;46825;51.99869940;8.49421771;2023-02-01T04:18:57;4.50;99.90
1644;DHT22;46825;51.99869940;8.49421771;2023-02-01T04:19:58;5.40;99.90
1644;DHT22;46825;51.99869940;8.49421771;2023-02-01T04:20:59;5.40;99.90
1644;DHT22;46825;51.99869940;8.49421771;2023-02-01T04:22:01;5.50;99.90
1644;DHT22;46825;51.99869940;8.49421771;2023-02-01T04:23:01;5.40;99.90
1644;DHT22;46825;51.99869940;8.49421771;2023-02-01T04:24:03;3.00;99.90
1644;DHT22;46825;51.99869940;8.49421771;2023-02-01T04:25:04;5.40;99.90
1644;DHT22;46825;51.99869940;8.49421771;2023-02-01T04:26:06;5.40;99.90
1644;DHT22;46825;51.99869940;8.49421771;2023-02-01T04:27:07;5.40;99.90
1644;DHT22;46825;51.99869940;8.49421771;2023-02-01T04:28:07;5.50;99.90
1644;DHT22;46825;51.99869940;8.49421771;2023-02-01T04:29:09;5.50;99.90
1644;DHT22;46825;51.99869940;8.49421771;2023-02-01T04:30:11;5.50;99.90
1644;DHT22;46825;51.99869940;8.49421771;2023-02-01T04:31:11;5.50;99.90
1644;DHT22;46825;51.99869940;8.49421771;2023-02-01T04:32:12;5.50;99.90
1644;DHT22;46825;51.99869940;8.49421771;2023-02-01T04:33:12;5.40;99.90
1644;DHT22;46825;51.99869940;8.49421771;2023-02-01T04:34:15;5.50;99.90
1644;DHT22;46825;51.99869940;8.49421771;2023-02-01T04:35:16;5.50;99.90
1644;DHT22;46825;51.99869940;8.49421771;2023-02-01T04:36:18;5.50;99.90
1644;DHT22;46825;51.99869940;8.49421771;2023-02-01T04:37:22;5.50;99.90
1644;DHT22;46825;51.99869940;8.49421771;2023-02-01T04:38:22;5.50;99.90
1644;DHT22;46825;51.99869940;8.49421771;2023-02-01T04:39:23;5.50;99.90
1644;DHT22;46825;51.99869940;8.49421771;2023-02-01T04:40:23;5.50;99.90
1644;DHT22;46825;51.99869940;8.49421771;2023-02-01T04:41:24;5.50;99.90
1644;DHT22;46825;51.99869940;8.49421771;2023-02-01T04:42:25;5.50;99.90
1644;DHT22;46825;51.99869940;8.49421771;2023-02-01T04:43:26;5.50;99.90
1644;DHT22;46825;51.99869940;8.49421771;2023-02-01T04:44:26;5.50;99.90
1644;DHT22;46825;51.99869940;8.49421771;2023-02-01T04:45:27;5.50;99.90
1644;DHT22;46825;51.99869940;8.49421771;2023-02-01T04:46:28;5.40;99.90
1644;DHT22;46825;51.99869940;8.49421771;2023-02-01T04:47:28;5.40;99.90
1644;DHT22;46825;51.99869940;8.49421771;2023-02-01T04:48:29;5.40;99.90
1644;DHT22;46825;51.99869940;8.49421771;2023-02-01T04:49:29;5.30;99.90
1644;DHT22;46825;51.99869940;8.49421771;2023-02-01T04:50:30;5.30;99.90
1644;DHT22;46825;51.99869940;8.49421771;2023-02-01T04:51:30;5.30;99.90
1644;DHT22;46825;51.99869940;8.49421771;2023-02-01T04:52:31;5.30;99.90
1644;DHT22;46825;51.99869940;8.49421771;2023-02-01T04:53:32;5.30;99.90
1644;DHT22;46825;51.99869940;8.49421771;2023-02-01T04:54:32;5.30;99.90
1644;DHT22;46825;51.99869940;8.49421771;2023-02-01T04:55:33;5.20;99.90
1644;DHT22;46825;51.99869940;8.49421771;2023-02-01T04:56:34;5.20;99.90
1644;DHT22;46825;51.99869940;8.49421771;2023-02-01T04:57:35;5.20;99.90
1644;DHT22;46825;51.99869940;8.49421771;2023-02-01T04:58:35;5.20;99.90
1644;DHT22;46825;51.99869940;8.49421771;2023-02-01T04:59:36;5.20;99.90
1644;DHT22;46825;51.99869940;8.49421771;2023-02-01T05:00:37;5.20;99.90
1644;DHT22;46825;51.99869940;8.49421771;2023-02-01T05:01:38;5.20;99.90
1644;DHT22;46825;51.99869940;8.49421771;2023-02-01T05:02:39;5.30;99.90
1644;DHT22;46825;51.99869940;8.49421771;2023-02-01T05:03:39;5.30;99.90
1644;DHT22;46825;51.99869940;8.49421771;2023-02-01T05:04:40;5.30;99.90
1644;DHT22;46825;51.99869940;8.49421771;2023-02-01T05:05:40;5.30;99.90
1644;DHT22;46825;51.99869940;8.49421771;2023-02-01T05:06:41;5.30;99.90
1644;DHT22;46825;51.99869940;8.49421771;2023-02-01T05:07:41;5.30;99.90
1644;DHT22;46825;51.99869940;8.49421771;2023-02-01T05:08:42;5.30;99.90
1644;DHT22;46825;51.99869940;8.49421771;2023-02-01T05:09:43;5.20;99.90
1644;DHT22;46825;51.99869940;8.49421771;2023-02-01T05:10:44;5.20;99.90
1644;DHT22;46825;51.99869940;8.49421771;2023-02-01T05:11:45;5.20;99.90
1644;DHT22;46825;51.99869940;8.49421771;2023-02-01T05:13:04;8.70;99.90
1644;DHT22;46825;51.99869940;8.49421771;2023-02-01T05:14:23;5.20;99.90
1644;DHT22;46825;51.99869940;8.49421771;2023-02-01T05:15:24;5.20;99.90
1644;DHT22;46825;51.99869940;8.49421771;2023-02-01T05:16:24;5.20;99.90
1644;DHT22;46825;51.99869940;8.49421771;2023-02-01T05:17:25;5.20;99.90
1644;DHT22;46825;51.99869940;8.49421771;2023-02-01T05:18:26;5.10;99.90
1644;DHT22;46825;51.99869940;8.49421771;2023-02-01T05:19:26;5.10;99.90
1644;DHT22;46825;51.99869940;8.49421771;2023-02-01T05:20:27;5.10;99.90
1644;DHT22;46825;51.99869940;8.49421771;2023-02-01T05:21:28;5.10;99.90
1644;DHT22;46825;51.99869940;8.49421771;2023-02-01T05:22:28;5.20;99.90
1644;DHT22;46825;51.99869940;8.49421771;2023-02-01T05:23:29;5.10;99.90
1644;DHT22;46825;51.99869940;8.49421771;2023-02-01T05:24:29;5.10;99.90
1644;DHT22;46825;51.99869940;8.49421771;2023-02-01T05:25:30;5.10;99.90
1644;DHT22;46825;51.99869940;8.49421771;2023-02-01T05:27:32;5.10;99.90
1644;DHT22;46825;51.99869940;8.49421771;2023-02-01T05:28:33;5.00;99.90
1644;DHT22;46825;51.99869940;8.49421771;2023-02-01T05:29:33;5.10;99.90
1644;DHT22;46825;51.99869940;8.49421771;2023-02-01T05:30:34;5.10;99.90
1644;DHT22;46825;51.99869940;8.49421771;2023-02-01T05:31:36;5.10;99.90
1644;DHT22;46825;51.99869940;8.49421771;2023-02-01T05:32:36;5.10;99.90
1644;DHT22;46825;51.99869940;8.49421771;2023-02-01T05:33:37;5.10;99.90
1644;DHT22;46825;51.99869940;8.49421771;2023-02-01T05:34:37;5.10;99.90
1644;DHT22;46825;51.99869940;8.49421771;2023-02-01T05:35:38;5.10;99.90
1644;DHT22;46825;51.99869940;8.49421771;2023-02-01T05:36:39;5.10;99.90
1644;DHT22;46825;51.99869940;8.49421771;2023-02-01T05:37:39;5.10;99.90
1644;DHT22;46825;51.99869940;8.49421771;2023-02-01T05:38:40;5.10;99.90
1644;DHT22;46825;51.99869940;8.49421771;2023-02-01T05:39:41;5.10;99.90
1644;DHT22;46825;51.99869940;8.49421771;2023-02-01T05:40:41;5.10;99.90
1644;DHT22;46825;51.99869940;8.49421771;2023-02-01T05:41:42;5.10;99.90
1644;DHT22;46825;51.99869940;8.49421771;2023-02-01T05:42:42;5.10;99.90
1644;DHT22;46825;51.99869940;8.49421771;2023-02-01T05:44:44;5.10;99.90
1644;DHT22;46825;51.99869940;8.49421771;2023-02-01T05:45:44;5.10;99.90
1644;DHT22;46825;51.99869940;8.49421771;2023-02-01T05:46:45;5.10;99.90
1644;DHT22;46825;51.99869940;8.49421771;2023-02-01T05:47:45;5.20;99.90
1644;DHT22;46825;51.99869940;8.49421771;2023-02-01T05:48:46;5.10;99.90
1644;DHT22;46825;51.99869940;8.49421771;2023-02-01T05:49:46;5.10;99.90
1644;DHT22;46825;51.99869940;8.49421771;2023-02-01T05:50:47;5.10;99.90
1644;DHT22;46825;51.99869940;8.49421771;2023-02-01T05:51:48;5.10;99.90
1644;DHT22;46825;51.99869940;8.49421771;2023-02-01T05:52:48;5.10;99.90
1644;DHT22;46825;51.99869940;8.49421771;2023-02-01T05:53:49;5.10;99.90
1644;DHT22;46825;51.99869940;8.49421771;2023-02-01T05:54:49;5.10;99.90
1644;DHT22;46825;51.99869940;8.49421771;2023-02-01T05:55:50;5.20;99.90
1644;DHT22;46825;51.99869940;8.49421771;2023-02-01T05:56:50;5.10;99.90
1644;DHT22;46825;51.99869940;8.49421771;2023-02-01T05:57:51;5.10;99.90
1644;DHT22;46825;51.99869940;8.49421771;2023-02-01T05:58:51;5.10;99.90
1644;DHT22;46825;51.99869940;8.49421771;2023-02-01T05:59:52;5.20;99.90
1644;DHT22;46825;51.99869940;8.49421771;2023-02-01T06:00:53;5.20;99.90
1644;DHT22;46825;51.99869940;8.49421771;2023-02-01T06:01:53;5.10;99.90
1644;DHT22;46825;51.99869940;8.49421771;2023-02-01T06:02:54;5.20;99.90
1644;DHT22;46825;51.99869940;8.49421771;2023-02-01T06:03:54;5.20;99.90
1644;DHT22;46825;51.99869940;8.49421771;2023-02-01T06:04:55;5.20;99.90
1644;DHT22;46825;51.99869940;8.49421771;2023-02-01T06:05:55;5.20;99.90
1644;DHT22;46825;51.99869940;8.49421771;2023-02-01T06:06:56;5.20;99.90
1644;DHT22;46825;51.99869940;8.49421771;2023-02-01T06:07:57;5.20;99.90
1644;DHT22;46825;51.99869940;8.49421771;2023-02-01T06:08:57;5.30;99.90
1644;DHT22;46825;51.99869940;8.49421771;2023-02-01T06:09:58;5.30;99.90
1644;DHT22;46825;51.99869940;8.49421771;2023-02-01T06:11:03;5.30;99.90
1644;DHT22;46825;51.99869940;8.49421771;2023-02-01T06:12:05;5.30;99.90
1644;DHT22;46825;51.99869940;8.49421771;2023-02-01T06:13:05;5.30;99.90
1644;DHT22;46825;51.99869940;8.49421771;2023-02-01T06:14:06;5.30;99.90
1644;DHT22;46825;51.99869940;8.49421771;2023-02-01T06:15:08;5.30;99.90
1644;DHT22;46825;51.99869940;8.49421771;2023-02-01T06:16:09;5.30;99.90
1644;DHT22;46825;51.99869940;8.49421771;2023-02-01T06:18:10;5.30;99.90
1644;DHT22;46825;51.99869940;8.49421771;2023-02-01T06:19:11;5.30;99.90
1644;DHT22;46825;51.99869940;8.49421771;2023-02-01T06:20:13;5.30;99.90
1644;DHT22;46825;51.99869940;8.49421771;2023-02-01T06:21:14;5.20;99.90
1644;DHT22;46825;51.99869940;8.49421771;2023-02-01T06:22:23;5.30;99.90
1644;DHT22;46825;51.99869940;8.49421771;2023-02-01T06:23:24;5.30;99.90
1644;DHT22;46825;51.99869940;8.49421771;2023-02-01T06:24:24;5.30;99.90
1644;DHT22;46825;51.99869940;8.49421771;2023-02-01T06:25:25;5.30;99.90
1644;DHT22;46825;51.99869940;8.49421771;2023-02-01T06:26:25;5.30;99.90
1644;DHT22;46825;51.99869940;8.49421771;2023-02-01T06:27:28;5.50;99.90
1644;DHT22;46825;51.99869940;8.49421771;2023-02-01T06:28:31;5.30;99.90
1644;DHT22;46825;51.99869940;8.49421771;2023-02-01T06:29:32;5.30;99.90
1644;DHT22;46825;51.99869940;8.49421771;2023-02-01T06:30:33;5.30;99.90
1644;DHT22;46825;51.99869940;8.49421771;2023-02-01T06:31:34;5.30;99.90